createdAt,value
2019-03-09T00:02:16.448Z,68.27
2019-03-09T00:04:40.856Z,67.71
2019-03-09T00:07:05.426Z,67.54
2019-03-09T00:09:29.827Z,67.07
2019-03-09T00:11:54.731Z,67.35
2019-03-09T00:14:19.140Z,67.44
2019-03-09T00:16:43.633Z,66.99
2019-03-09T00:19:08.173Z,67.48
2019-03-09T00:21:32.602Z,66.64
2019-03-09T00:24:01.379Z,66.65
2019-03-09T00:26:36.177Z,67.04
2019-03-09T00:29:02.229Z,66.77
2019-03-09T00:31:28.296Z,67.31
2019-03-09T00:33:52.707Z,67.51
2019-03-09T00:36:17.095Z,67.79
2019-03-09T00:38:41.522Z,66.27
2019-03-09T00:41:05.997Z,66.67
2019-03-09T00:43:30.487Z,67.45
2019-03-09T00:45:55.076Z,68.00
2019-03-09T00:48:19.503Z,66.33
2019-03-09T00:50:43.911Z,66.30
2019-03-09T00:53:08.345Z,65.70
2019-03-09T00:55:32.759Z,65.55
2019-03-09T00:57:57.201Z,65.38
2019-03-09T01:00:21.748Z,65.64
2019-03-09T01:02:46.308Z,65.22
2019-03-09T01:05:11.066Z,65.73
2019-03-09T01:07:35.548Z,65.71
2019-03-09T01:09:59.943Z,66.37
2019-03-09T01:12:24.438Z,65.97
2019-03-09T01:14:48.895Z,66.68
2019-03-09T01:17:13.365Z,65.63
2019-03-09T01:19:37.783Z,65.98
2019-03-09T01:22:02.182Z,65.80
2019-03-09T01:24:26.618Z,66.06
2019-03-09T01:26:51.097Z,65.96
2019-03-09T01:29:15.596Z,66.45
2019-03-09T01:31:39.964Z,66.47
2019-03-09T01:34:04.629Z,65.97
2019-03-09T01:36:29.023Z,65.80
2019-03-09T01:38:53.651Z,66.81
2019-03-09T01:41:18.107Z,68.06
2019-03-09T01:43:42.517Z,68.14
2019-03-09T01:46:06.992Z,67.30
2019-03-09T01:48:31.550Z,67.69
2019-03-09T01:50:55.954Z,67.74
2019-03-09T01:53:20.444Z,68.05
2019-03-09T01:55:44.945Z,69.04
2019-03-09T01:58:09.338Z,67.96
2019-03-09T02:00:33.784Z,67.94
2019-03-09T02:02:58.164Z,67.71
2019-03-09T02:05:22.578Z,67.84
2019-03-09T02:07:48.276Z,67.79
2019-03-09T02:10:15.040Z,67.63
2019-03-09T02:12:39.427Z,67.14
2019-03-09T02:15:06.462Z,67.03
2019-03-09T02:17:30.965Z,66.90
2019-03-09T02:19:56.975Z,67.25
2019-03-09T02:22:28.590Z,67.20
2019-03-09T02:24:53.050Z,67.53
2019-03-09T02:27:17.456Z,67.17
2019-03-09T02:29:41.938Z,67.32
2019-03-09T02:32:06.409Z,67.44
2019-03-09T02:34:30.911Z,67.86
2019-03-09T02:36:55.455Z,67.95
2019-03-09T02:39:21.523Z,68.09
2019-03-09T02:41:45.927Z,67.68
2019-03-09T02:44:10.414Z,68.35
2019-03-09T02:46:34.812Z,68.33
2019-03-09T02:48:59.226Z,68.87
2019-03-09T02:51:23.768Z,68.17
2019-03-09T02:53:48.167Z,69.00
2019-03-09T02:56:12.610Z,69.22
2019-03-09T02:58:36.980Z,69.70
2019-03-09T03:01:03.141Z,69.89
2019-03-09T03:03:27.527Z,69.99
2019-03-09T03:05:51.959Z,70.14
2019-03-09T03:08:16.367Z,70.11
2019-03-09T03:10:40.804Z,71.18
2019-03-09T03:13:05.205Z,70.77
2019-03-09T03:15:38.765Z,70.62
2019-03-09T03:18:03.307Z,71.26
2019-03-09T03:20:27.808Z,71.94
2019-03-09T03:22:52.278Z,71.57
2019-03-09T03:25:16.732Z,71.25
2019-03-09T03:27:41.129Z,71.71
2019-03-09T03:30:07.598Z,71.67
2019-03-09T03:32:33.656Z,72.34
2019-03-09T03:34:58.051Z,72.45
2019-03-09T03:37:22.472Z,72.75
2019-03-09T03:39:46.869Z,73.02
2019-03-09T03:42:11.315Z,73.86
2019-03-09T03:44:37.410Z,74.34
2019-03-09T03:47:01.999Z,73.82
2019-03-09T03:49:26.522Z,73.94
2019-03-09T03:51:50.957Z,74.86
2019-03-09T03:54:15.428Z,74.68
2019-03-09T03:56:39.973Z,75.08
2019-03-09T03:59:04.563Z,75.51
2019-03-09T04:01:30.506Z,75.29
2019-03-09T04:03:55.111Z,75.19
2019-03-09T04:06:19.638Z,75.34
2019-03-09T04:08:44.599Z,75.75
2019-03-09T04:11:09.140Z,75.69
2019-03-09T04:13:33.641Z,76.38
2019-03-09T04:15:58.052Z,77.24
2019-03-09T04:18:22.475Z,77.65
2019-03-09T04:20:46.952Z,77.55
2019-03-09T04:23:11.388Z,77.74
2019-03-09T04:25:35.870Z,78.36
2019-03-09T04:28:00.269Z,78.57
2019-03-09T04:30:24.677Z,78.87
2019-03-09T04:32:49.207Z,79.23
2019-03-09T04:35:14.279Z,79.28
2019-03-09T04:37:38.709Z,79.22
2019-03-09T04:40:04.556Z,79.79
2019-03-09T04:45:27.244Z,79.89
2019-03-09T04:47:52.668Z,80.97
2019-03-09T04:50:17.136Z,80.36
2019-03-09T04:52:41.608Z,80.72
2019-03-09T04:55:07.571Z,80.65
2019-03-09T04:57:32.038Z,80.20
2019-03-09T04:59:56.468Z,80.55
2019-03-09T05:02:20.947Z,80.85
2019-03-09T05:04:46.675Z,80.73
2019-03-09T05:07:12.649Z,80.72
2019-03-09T05:09:56.676Z,80.46
2019-03-09T05:12:21.075Z,80.75
2019-03-09T05:14:45.511Z,81.51
2019-03-09T05:17:09.898Z,81.84
2019-03-09T05:19:34.334Z,81.99
2019-03-09T05:21:58.722Z,81.86
2019-03-09T05:24:23.154Z,81.87
2019-03-09T05:26:47.555Z,81.96
2019-03-09T05:29:11.998Z,82.09
2019-03-09T05:31:36.380Z,81.77
2019-03-09T05:34:00.793Z,81.88
2019-03-09T05:36:25.206Z,82.08
2019-03-09T05:38:51.182Z,82.45
2019-03-09T05:41:15.898Z,82.20
2019-03-09T05:43:40.299Z,82.69
2019-03-09T05:46:04.777Z,82.81
2019-03-09T05:48:29.185Z,83.16
2019-03-09T05:50:53.621Z,83.33
2019-03-09T05:53:19.666Z,83.57
2019-03-09T05:55:44.233Z,83.62
2019-03-09T05:58:08.642Z,83.38
2019-03-09T06:00:34.108Z,83.33
2019-03-09T06:02:58.572Z,83.61
2019-03-09T06:05:28.522Z,83.73
2019-03-09T06:07:52.921Z,83.80
2019-03-09T06:10:17.415Z,83.75
2019-03-09T06:12:41.853Z,84.05
2019-03-09T06:15:06.374Z,83.86
2019-03-09T06:17:30.866Z,84.13
2019-03-09T06:19:55.259Z,84.16
2019-03-09T06:22:19.684Z,83.68
2019-03-09T06:24:44.094Z,83.42
2019-03-09T06:27:08.525Z,83.50
2019-03-09T06:29:37.508Z,82.96
2019-03-09T06:32:33.811Z,83.01
2019-03-09T06:35:00.468Z,82.53
2019-03-09T06:37:26.525Z,82.77
2019-03-09T06:39:51.059Z,82.63
2019-03-09T06:42:19.133Z,82.39
2019-03-09T06:44:43.537Z,82.34
2019-03-09T06:47:08.021Z,81.94
2019-03-09T06:49:32.416Z,81.73
2019-03-09T06:51:56.848Z,81.41
2019-03-09T06:54:21.239Z,81.24
2019-03-09T06:56:45.678Z,81.16
2019-03-09T06:59:10.130Z,80.76
2019-03-09T07:01:34.523Z,80.25
2019-03-09T07:03:58.939Z,80.65
2019-03-09T07:06:23.402Z,80.12
2019-03-09T07:08:47.906Z,79.59
2019-03-09T07:11:12.297Z,79.89
2019-03-09T07:13:36.724Z,79.31
2019-03-09T07:16:01.118Z,78.70
2019-03-09T07:18:25.680Z,79.02
2019-03-09T07:20:50.146Z,79.33
2019-03-09T07:23:14.563Z,78.86
2019-03-09T07:25:38.962Z,78.75
2019-03-09T07:28:05.990Z,78.60
2019-03-09T07:30:30.623Z,78.35
2019-03-09T07:32:55.039Z,77.99
2019-03-09T07:35:19.460Z,78.19
2019-03-09T07:37:43.862Z,77.94
2019-03-09T07:40:11.224Z,78.12
2019-03-09T07:42:35.703Z,77.52
2019-03-09T07:45:00.172Z,77.22
2019-03-09T07:47:24.605Z,76.63
2019-03-09T07:49:49.051Z,76.69
2019-03-09T07:52:30.782Z,76.47
2019-03-09T07:54:55.203Z,76.75
2019-03-09T07:57:19.690Z,75.80
2019-03-09T07:59:44.128Z,76.12
2019-03-09T08:02:08.528Z,76.36
2019-03-09T08:04:32.974Z,75.24
2019-03-09T08:06:57.380Z,74.63
2019-03-09T08:09:21.875Z,74.91
2019-03-09T08:11:46.279Z,74.97
2019-03-09T08:14:10.771Z,73.70
2019-03-09T08:16:36.214Z,74.50
2019-03-09T08:19:00.653Z,73.84
2019-03-09T08:21:25.076Z,73.97
2019-03-09T08:23:49.453Z,73.26
2019-03-09T08:26:13.874Z,72.34
2019-03-09T08:28:38.298Z,71.85
2019-03-09T08:31:02.709Z,72.15
2019-03-09T08:33:27.118Z,71.74
2019-03-09T08:35:51.618Z,71.95
2019-03-09T08:38:28.627Z,71.53
2019-03-09T08:40:56.318Z,71.86
2019-03-09T08:43:21.790Z,71.61
2019-03-09T08:45:46.217Z,71.14
2019-03-09T08:48:10.679Z,70.66
2019-03-09T08:50:35.129Z,71.16
2019-03-09T08:52:59.697Z,71.09
2019-03-09T08:55:24.189Z,70.33
2019-03-09T08:57:48.719Z,69.72
2019-03-09T09:00:19.267Z,69.13
2019-03-09T09:02:43.678Z,69.34
2019-03-09T09:05:08.344Z,69.48
2019-03-09T09:07:32.759Z,69.00
2019-03-09T09:09:57.147Z,68.58
2019-03-09T09:12:21.639Z,68.59
2019-03-09T09:14:46.050Z,68.53
2019-03-09T09:17:10.554Z,68.25
2019-03-09T09:19:35.037Z,68.37
2019-03-09T09:21:59.539Z,67.70
2019-03-09T09:24:23.947Z,68.09
2019-03-09T09:26:48.405Z,68.77
2019-03-09T09:29:12.801Z,67.71
2019-03-09T09:31:37.361Z,67.84
2019-03-09T09:34:01.756Z,67.19
2019-03-09T09:36:26.266Z,67.68
2019-03-09T09:38:50.670Z,67.55
2019-03-09T09:41:15.234Z,67.55
2019-03-09T09:43:39.645Z,68.14
2019-03-09T09:46:04.115Z,67.86
2019-03-09T09:48:28.613Z,67.85
2019-03-09T09:50:53.088Z,66.93
2019-03-09T09:53:17.585Z,67.53
2019-03-09T09:55:41.991Z,66.62
2019-03-09T09:58:06.419Z,66.21
2019-03-09T10:00:30.919Z,65.66
2019-03-09T10:02:55.328Z,66.07
2019-03-09T10:05:19.885Z,65.14
2019-03-09T10:07:44.502Z,65.58
2019-03-09T10:10:19.858Z,65.02
2019-03-09T10:12:44.277Z,64.97
2019-03-09T10:15:30.365Z,64.52
2019-03-09T10:17:54.899Z,64.23
2019-03-09T10:20:20.407Z,63.96
2019-03-09T10:22:44.837Z,63.57
2019-03-09T10:25:10.576Z,62.06
2019-03-09T10:27:35.016Z,61.82
2019-03-09T10:29:59.497Z,61.67
2019-03-09T10:32:23.916Z,61.30
2019-03-09T10:34:48.373Z,58.70
2019-03-09T10:37:12.844Z,58.18
2019-03-09T10:39:37.494Z,58.36
2019-03-09T10:42:01.978Z,57.15
2019-03-09T10:44:26.442Z,57.15
2019-03-09T10:46:50.866Z,56.70
2019-03-09T10:49:15.331Z,56.41
2019-03-09T10:51:39.893Z,55.96
2019-03-09T10:54:04.425Z,54.93
2019-03-09T10:56:28.855Z,55.18
2019-03-09T10:58:53.359Z,54.48
2019-03-09T11:01:17.838Z,54.93
2019-03-09T11:03:42.360Z,54.07
2019-03-09T11:06:06.907Z,52.40
2019-03-09T11:08:31.300Z,53.06
2019-03-09T11:10:55.802Z,52.70
2019-03-09T11:13:20.215Z,53.03
2019-03-09T11:15:44.656Z,53.25
2019-03-09T11:18:09.170Z,53.83
2019-03-09T11:20:33.592Z,53.75
2019-03-09T11:22:57.989Z,54.36
2019-03-09T11:25:22.466Z,54.84
2019-03-09T11:27:46.949Z,54.91
2019-03-09T11:30:16.970Z,54.97
2019-03-09T11:32:41.381Z,56.03
2019-03-09T11:35:06.809Z,55.84
2019-03-09T11:37:31.210Z,56.50
2019-03-09T11:39:55.722Z,57.15
2019-03-09T11:42:20.122Z,56.53
2019-03-09T11:44:44.639Z,57.14
2019-03-09T11:47:09.130Z,58.60
2019-03-09T11:49:33.548Z,58.37
2019-03-09T11:51:58.036Z,59.14
2019-03-09T11:54:22.442Z,58.25
2019-03-09T11:56:46.874Z,59.14
2019-03-09T11:59:11.284Z,59.78
2019-03-09T12:01:35.738Z,59.61
2019-03-09T12:04:00.153Z,59.63
2019-03-09T12:06:24.581Z,59.18
2019-03-09T12:08:48.995Z,58.37
2019-03-09T12:11:13.408Z,55.40
2019-03-09T12:13:37.889Z,56.71
2019-03-09T12:16:02.416Z,52.75
2019-03-09T12:18:26.818Z,50.60
2019-03-09T12:20:51.231Z,50.96
2019-03-09T12:23:18.380Z,48.78
2019-03-09T12:25:42.799Z,47.79
2019-03-09T12:28:07.226Z,47.61
2019-03-09T12:30:31.634Z,45.41
2019-03-09T12:32:56.052Z,52.16
2019-03-09T12:35:20.540Z,56.62
2019-03-09T12:37:44.977Z,53.65
2019-03-09T12:40:12.425Z,56.13
2019-03-09T12:42:36.936Z,57.40
2019-03-09T12:45:01.356Z,58.42
2019-03-09T12:47:25.794Z,57.72
2019-03-09T12:49:50.224Z,58.37
2019-03-09T12:52:14.696Z,58.71
2019-03-09T12:54:39.128Z,57.52
2019-03-09T12:57:03.596Z,56.46
2019-03-09T12:59:28.024Z,57.32
2019-03-09T13:01:52.429Z,57.42
2019-03-09T13:04:16.868Z,58.35
2019-03-09T13:06:41.409Z,57.68
2019-03-09T13:09:05.981Z,56.87
2019-03-09T13:11:30.381Z,59.12
2019-03-09T13:13:54.812Z,57.85
2019-03-09T13:16:19.371Z,56.72
2019-03-09T13:18:43.854Z,56.71
2019-03-09T13:21:08.256Z,55.20
2019-03-09T13:23:32.662Z,54.49
2019-03-09T13:25:57.097Z,54.71
2019-03-09T13:28:21.504Z,53.31
2019-03-09T13:30:46.040Z,51.40
2019-03-09T13:33:10.600Z,49.83
2019-03-09T13:35:35.098Z,46.48
2019-03-09T13:37:59.508Z,49.71
2019-03-09T13:40:23.945Z,49.14
2019-03-09T13:42:48.354Z,51.97
2019-03-09T13:45:15.835Z,52.42
2019-03-09T13:47:40.232Z,52.60
2019-03-09T13:50:07.287Z,53.64
2019-03-09T13:52:31.758Z,54.13
2019-03-09T13:54:56.324Z,53.66
2019-03-09T13:57:20.734Z,53.63
2019-03-09T13:59:45.158Z,50.89
2019-03-09T14:02:09.568Z,49.23
2019-03-09T14:04:33.987Z,47.34
2019-03-09T14:06:58.399Z,48.36
2019-03-09T14:09:22.824Z,50.30
2019-03-09T14:11:47.301Z,51.72
2019-03-09T14:14:12.078Z,49.49
2019-03-09T14:16:36.717Z,49.55
2019-03-09T14:19:01.120Z,48.58
2019-03-09T14:21:25.537Z,46.27
2019-03-09T14:23:49.933Z,48.10
2019-03-09T14:26:14.343Z,51.53
2019-03-09T14:28:38.772Z,51.29
2019-03-09T14:31:03.258Z,51.66
2019-03-09T14:33:28.891Z,52.69
2019-03-09T14:35:53.561Z,53.24
2019-03-09T14:38:17.961Z,52.55
2019-03-09T14:40:42.407Z,48.95
2019-03-09T14:43:06.891Z,52.12
2019-03-09T14:45:31.315Z,52.78
2019-03-09T14:47:55.861Z,51.41
2019-03-09T14:50:20.339Z,50.97
2019-03-09T14:52:44.740Z,50.34
2019-03-09T14:55:11.049Z,51.80
2019-03-09T14:57:35.532Z,52.31
2019-03-09T14:59:59.913Z,52.71
2019-03-09T15:02:24.404Z,48.77
2019-03-09T15:04:48.885Z,50.93
2019-03-09T15:07:13.321Z,51.89
2019-03-09T15:09:37.816Z,53.81
2019-03-09T15:12:02.286Z,53.89
2019-03-09T15:14:26.848Z,55.72
2019-03-09T15:16:51.284Z,55.76
2019-03-09T15:19:15.684Z,55.54
2019-03-09T15:21:40.131Z,54.05
2019-03-09T15:24:04.678Z,50.57
2019-03-09T15:26:29.233Z,47.09
2019-03-09T15:28:53.652Z,51.08
2019-03-09T15:31:18.082Z,51.18
2019-03-09T15:33:42.484Z,51.79
2019-03-09T15:36:07.007Z,52.34
2019-03-09T15:38:31.413Z,52.92
2019-03-09T15:40:55.895Z,53.35
2019-03-09T15:43:20.464Z,53.28
2019-03-09T15:45:44.949Z,53.91
2019-03-09T15:48:09.355Z,53.77
2019-03-09T15:50:33.840Z,53.89
2019-03-09T15:52:58.338Z,53.96
2019-03-09T15:55:22.742Z,53.80
2019-03-09T15:57:47.230Z,55.12
2019-03-09T16:00:19.650Z,59.60
2019-03-09T16:02:44.136Z,60.53
2019-03-09T16:05:08.590Z,65.01
2019-03-09T16:07:33.079Z,68.32
2019-03-09T16:09:57.493Z,68.97
2019-03-09T16:12:21.916Z,70.68
2019-03-09T16:14:46.327Z,72.87
2019-03-09T16:17:10.837Z,73.92
2019-03-09T16:19:35.386Z,75.08
2019-03-09T16:21:59.834Z,75.42
2019-03-09T16:24:25.560Z,74.73
2019-03-09T16:26:50.030Z,75.32
2019-03-09T16:29:14.504Z,75.11
2019-03-09T16:31:38.959Z,74.56
2019-03-09T16:34:03.353Z,75.25
2019-03-09T16:36:27.802Z,74.84
2019-03-09T16:38:52.204Z,74.95
2019-03-09T16:41:16.628Z,75.05
2019-03-09T16:43:41.054Z,74.30
2019-03-09T16:46:05.538Z,74.19
2019-03-09T16:48:29.973Z,73.47
2019-03-09T16:50:54.385Z,73.63
2019-03-09T16:53:18.807Z,74.59
2019-03-09T16:55:43.209Z,74.36
2019-03-09T16:58:07.710Z,74.88
2019-03-09T17:00:32.115Z,75.41
2019-03-09T17:02:56.635Z,75.52
2019-03-09T17:05:21.094Z,75.77
2019-03-09T17:07:45.486Z,75.47
2019-03-09T17:10:11.140Z,75.76
2019-03-09T17:12:35.687Z,76.04
2019-03-09T17:15:00.094Z,75.79
2019-03-09T17:17:24.557Z,76.25
2019-03-09T17:19:50.092Z,75.85
2019-03-09T17:22:14.455Z,76.08
2019-03-09T17:24:38.888Z,76.26
2019-03-09T17:27:03.287Z,76.76
2019-03-09T17:29:27.717Z,76.74
2019-03-09T17:31:52.133Z,76.24
2019-03-09T17:34:16.579Z,76.43
2019-03-09T17:36:40.984Z,77.02
2019-03-09T17:39:06.244Z,77.23
2019-03-09T17:41:30.665Z,77.54
2019-03-09T17:43:55.096Z,77.50
2019-03-09T17:46:19.558Z,77.68
2019-03-09T17:48:43.973Z,77.71
2019-03-09T17:51:08.444Z,77.17
2019-03-09T17:53:32.873Z,77.27
2019-03-09T17:55:57.350Z,77.14
2019-03-09T17:58:21.766Z,77.07
2019-03-09T18:00:47.431Z,77.12
2019-03-09T18:03:11.822Z,76.29
2019-03-09T18:05:36.251Z,76.40
2019-03-09T18:08:00.714Z,75.95
2019-03-09T18:10:36.888Z,75.85
2019-03-09T18:13:01.282Z,76.12
2019-03-09T18:15:25.707Z,75.23
2019-03-09T18:17:50.149Z,75.61
2019-03-09T18:20:14.647Z,75.64
2019-03-09T18:22:39.089Z,76.11
2019-03-09T18:25:04.057Z,77.01
2019-03-09T18:27:28.470Z,77.70
2019-03-09T18:29:52.870Z,78.34
2019-03-09T18:32:17.257Z,79.02
2019-03-09T18:34:41.701Z,78.83
2019-03-09T18:37:07.869Z,79.05
2019-03-09T18:39:32.470Z,78.78
2019-03-09T18:41:57.040Z,78.62
2019-03-09T18:44:21.566Z,78.61
2019-03-09T18:46:45.949Z,79.17
2019-03-09T18:49:10.386Z,79.01
2019-03-09T18:51:34.793Z,77.48
2019-03-09T18:53:59.197Z,77.20
2019-03-09T18:56:23.619Z,75.57
2019-03-09T18:58:48.015Z,75.54
2019-03-09T19:01:12.462Z,74.25
2019-03-09T19:03:37.018Z,75.14
2019-03-09T19:06:02.057Z,75.12
2019-03-09T19:08:26.550Z,73.95
2019-03-09T19:10:50.963Z,72.65
2019-03-09T19:13:15.354Z,72.13
2019-03-09T19:15:39.781Z,71.55
2019-03-09T19:18:04.241Z,72.50
2019-03-09T19:20:28.728Z,71.99
2019-03-09T19:22:53.134Z,72.65
2019-03-09T19:25:17.626Z,71.98
2019-03-09T19:27:42.103Z,72.45
2019-03-09T19:30:09.699Z,72.81
2019-03-09T19:32:34.104Z,73.31
2019-03-09T19:34:58.533Z,71.76
2019-03-09T19:37:22.978Z,72.64
2019-03-09T19:39:47.411Z,72.71
2019-03-09T19:42:11.818Z,71.19
2019-03-09T19:44:36.212Z,72.04
2019-03-09T19:47:00.647Z,72.13
2019-03-09T19:49:25.031Z,72.84
2019-03-09T19:51:49.440Z,73.71
2019-03-09T19:54:13.837Z,74.11
2019-03-09T19:56:38.259Z,73.78
2019-03-09T19:59:02.655Z,72.40
2019-03-09T20:01:27.133Z,73.12
2019-03-09T20:03:51.587Z,73.35
2019-03-09T20:06:16.153Z,73.41
2019-03-09T20:08:40.553Z,73.43
2019-03-09T20:11:05.141Z,73.06
2019-03-09T20:13:29.555Z,71.94
2019-03-09T20:15:54.032Z,72.28
2019-03-09T20:18:18.493Z,72.49
2019-03-09T20:20:42.923Z,72.54
2019-03-09T20:23:07.384Z,72.77
2019-03-09T20:25:31.807Z,72.76
2019-03-09T20:27:56.290Z,72.52
2019-03-09T20:30:22.280Z,72.07
2019-03-09T20:32:46.700Z,72.51
2019-03-09T20:35:11.236Z,72.57
2019-03-09T20:37:35.675Z,73.01
2019-03-09T20:40:00.085Z,73.10
2019-03-09T20:42:24.500Z,72.74
2019-03-09T20:44:48.904Z,72.53
2019-03-09T20:47:13.323Z,72.25
2019-03-09T20:49:37.740Z,72.35
2019-03-09T20:52:02.165Z,72.17
2019-03-09T20:54:26.569Z,72.20
2019-03-09T20:56:51.004Z,72.52
2019-03-09T20:59:15.402Z,72.54
2019-03-09T21:01:39.808Z,72.17
2019-03-09T21:04:04.298Z,72.20
2019-03-09T21:06:28.792Z,71.65
2019-03-09T21:08:53.218Z,71.65
2019-03-09T21:11:17.692Z,72.02
2019-03-09T21:13:42.104Z,72.15
2019-03-09T21:16:06.528Z,71.79
2019-03-09T21:18:30.938Z,71.34
2019-03-09T21:20:55.428Z,71.27
2019-03-09T21:23:19.956Z,71.19
2019-03-09T21:25:44.357Z,70.83
2019-03-09T21:28:08.925Z,70.78
2019-03-09T21:30:33.327Z,70.87
2019-03-09T21:32:57.859Z,70.80
2019-03-09T21:35:22.330Z,71.06
2019-03-09T21:37:46.832Z,70.78
2019-03-09T21:40:11.376Z,70.32
2019-03-09T21:42:35.856Z,70.55
2019-03-09T21:45:00.428Z,70.54
2019-03-09T21:47:24.917Z,70.48
2019-03-09T21:49:49.385Z,69.85
2019-03-09T21:52:13.788Z,69.89
2019-03-09T21:54:38.214Z,70.10
2019-03-09T21:57:02.608Z,70.13
2019-03-09T21:59:27.026Z,69.65
2019-03-09T22:01:51.511Z,69.97
2019-03-09T22:04:15.951Z,70.08
2019-03-09T22:06:40.361Z,70.51
2019-03-09T22:09:06.558Z,70.51
2019-03-09T22:11:30.977Z,70.52
2019-03-09T22:13:55.405Z,70.74
2019-03-09T22:16:19.805Z,70.84
2019-03-09T22:18:44.205Z,71.03
2019-03-09T22:21:08.721Z,70.83
2019-03-09T22:23:43.545Z,70.77
2019-03-09T22:25:59.259Z,70.60
2019-03-09T22:28:23.657Z,70.83
2019-03-09T22:30:48.082Z,71.49
2019-03-09T22:33:12.559Z,71.31
2019-03-09T22:35:37.043Z,71.19
2019-03-09T22:38:01.463Z,71.31
2019-03-09T22:40:25.905Z,71.22
2019-03-09T22:42:50.293Z,71.55
2019-03-09T22:45:15.738Z,71.76
2019-03-09T22:47:40.149Z,71.67
2019-03-09T22:50:06.914Z,71.54
2019-03-09T22:52:31.334Z,71.75
2019-03-09T22:54:55.721Z,72.08
2019-03-09T22:57:20.709Z,71.98
2019-03-09T22:59:45.125Z,71.92
2019-03-09T23:02:09.687Z,71.86
2019-03-09T23:04:34.128Z,72.38
2019-03-09T23:06:58.540Z,72.29
2019-03-09T23:09:23.009Z,71.99
2019-03-09T23:11:47.532Z,72.19
2019-03-09T23:14:11.930Z,72.05
2019-03-09T23:16:36.342Z,71.48
2019-03-09T23:19:00.742Z,72.07
2019-03-09T23:21:25.135Z,72.06
2019-03-09T23:23:49.541Z,72.28
2019-03-09T23:26:13.948Z,72.56
2019-03-09T23:28:48.326Z,72.43
2019-03-09T23:31:12.801Z,72.27
2019-03-09T23:33:37.292Z,72.48
2019-03-09T23:36:01.765Z,71.83
2019-03-09T23:38:26.164Z,71.91
2019-03-09T23:40:50.574Z,71.70
2019-03-09T23:43:14.985Z,71.76
2019-03-09T23:45:39.380Z,72.42
2019-03-09T23:48:03.939Z,72.35
2019-03-09T23:50:28.409Z,72.20
2019-03-09T23:52:52.963Z,72.08
2019-03-09T23:55:22.427Z,72.36
2019-03-09T23:57:44.997Z,72.29
